createdAt,value
2022-12-15T00:00:50.924Z,55.02
2022-12-15T00:01:50.832Z,56.70
2022-12-15T00:02:50.929Z,52.32
2022-12-15T00:03:50.885Z,61.84
2022-12-15T00:04:50.829Z,60.15
2022-12-15T00:05:50.823Z,55.80
2022-12-15T00:06:50.884Z,50.74
2022-12-15T00:07:50.791Z,50.04
2022-12-15T00:08:50.781Z,50.83
2022-12-15T00:09:50.776Z,55.20
2022-12-15T00:10:50.772Z,57.20
2022-12-15T00:11:50.764Z,50.78
2022-12-15T00:12:51.742Z,58.82
2022-12-15T00:13:50.747Z,55.66
2022-12-15T00:14:50.727Z,52.34
2022-12-15T00:15:52.331Z,52.80
2022-12-15T00:16:52.326Z,60.33
2022-12-15T00:17:50.876Z,55.87
2022-12-15T00:18:50.703Z,52.66
2022-12-15T00:19:50.728Z,52.96
2022-12-15T00:20:50.692Z,55.93
2022-12-15T00:21:50.690Z,47.43
2022-12-15T00:22:50.681Z,59.86
2022-12-15T00:23:50.660Z,49.21
2022-12-15T00:24:50.670Z,59.76
2022-12-15T00:25:50.663Z,58.13
2022-12-15T00:28:50.380Z,45.03
2022-12-15T00:29:50.370Z,57.28
2022-12-15T00:30:51.105Z,57.71
2022-12-15T00:31:50.418Z,57.05
2022-12-15T00:32:50.327Z,52.85
2022-12-15T00:33:50.359Z,57.33
2022-12-15T00:34:50.317Z,50.98
2022-12-15T00:35:50.312Z,50.04
2022-12-15T00:36:51.403Z,45.78
2022-12-15T00:37:51.382Z,47.09
2022-12-15T00:38:51.367Z,49.73
2022-12-15T00:39:52.374Z,51.41
2022-12-15T00:40:51.359Z,49.10
2022-12-15T00:41:51.363Z,55.08
2022-12-15T00:42:51.360Z,51.36
2022-12-15T00:43:51.355Z,45.38
2022-12-15T00:44:51.333Z,55.32
2022-12-15T00:45:51.337Z,59.14
2022-12-15T00:46:51.440Z,58.35
2022-12-15T00:47:51.325Z,50.26
2022-12-15T00:48:51.331Z,55.41
2022-12-15T00:49:51.298Z,56.42
2022-12-15T00:50:51.288Z,45.19
2022-12-15T00:51:51.287Z,52.96
2022-12-15T00:52:51.279Z,53.56
2022-12-15T00:53:51.262Z,47.06
2022-12-15T00:54:51.263Z,57.60
2022-12-15T00:55:51.248Z,56.96
2022-12-15T00:56:51.280Z,65.04
2022-12-15T00:57:51.236Z,59.75
2022-12-15T00:58:51.228Z,53.85
2022-12-15T00:59:51.221Z,57.40
2022-12-15T01:00:51.208Z,62.88
2022-12-15T01:01:51.301Z,59.64
2022-12-15T01:02:51.532Z,52.75
2022-12-15T01:03:51.256Z,58.47
2022-12-15T01:04:51.178Z,47.15
2022-12-15T01:05:51.170Z,42.25
2022-12-15T01:06:51.167Z,50.09
2022-12-15T01:07:51.154Z,58.59
2022-12-15T01:08:51.151Z,47.79
2022-12-15T01:09:51.148Z,52.22
2022-12-15T01:10:51.132Z,45.87
2022-12-15T01:11:51.162Z,49.99
2022-12-15T01:12:51.120Z,56.43
2022-12-15T01:13:51.119Z,54.26
2022-12-15T01:14:51.130Z,59.42
2022-12-15T01:15:51.164Z,60.01
2022-12-15T01:16:51.086Z,63.03
2022-12-15T01:17:51.082Z,54.67
2022-12-15T01:18:51.082Z,52.78
2022-12-15T01:19:51.074Z,58.42
2022-12-15T01:20:51.067Z,53.10
2022-12-15T01:21:52.081Z,61.49
2022-12-15T01:22:51.070Z,46.05
2022-12-15T01:23:51.033Z,49.74
2022-12-15T01:24:51.045Z,53.73
2022-12-15T01:25:51.023Z,56.97
2022-12-15T01:26:51.015Z,52.43
2022-12-15T01:27:51.004Z,51.97
2022-12-15T01:28:51.004Z,51.40
2022-12-15T01:29:50.996Z,49.86
2022-12-15T01:30:50.981Z,48.69
2022-12-15T01:31:51.052Z,54.59
2022-12-15T01:32:50.963Z,57.33
2022-12-15T01:33:50.958Z,50.53
2022-12-15T01:34:50.964Z,59.92
2022-12-15T01:35:50.945Z,49.83
2022-12-15T01:36:50.935Z,57.96
2022-12-15T01:37:50.933Z,43.27
2022-12-15T01:38:54.324Z,44.27
2022-12-15T01:39:51.930Z,44.04
2022-12-15T01:40:50.916Z,46.03
2022-12-15T01:41:50.904Z,57.72
2022-12-15T01:42:50.892Z,56.56
2022-12-15T01:43:50.882Z,50.27
2022-12-15T01:44:50.880Z,55.50
2022-12-15T01:45:50.874Z,50.20
2022-12-15T01:46:50.913Z,43.74
2022-12-15T01:47:50.862Z,45.05
2022-12-15T01:48:50.856Z,61.08
2022-12-15T01:49:50.841Z,51.55
2022-12-15T01:50:50.843Z,56.69
2022-12-15T01:51:50.831Z,54.78
2022-12-15T01:52:50.826Z,51.30
2022-12-15T01:53:50.820Z,55.70
2022-12-15T01:54:50.849Z,60.92
2022-12-15T01:55:50.802Z,58.01
2022-12-15T01:56:50.801Z,54.52
2022-12-15T01:57:50.788Z,48.12
2022-12-15T01:58:50.774Z,48.98
2022-12-15T01:59:50.796Z,53.07
2022-12-15T02:00:50.782Z,53.95
2022-12-15T02:01:50.898Z,62.04
2022-12-15T02:02:50.830Z,51.24
2022-12-15T02:03:50.745Z,46.15
2022-12-15T02:04:50.732Z,59.52
2022-12-15T02:05:50.731Z,59.20
2022-12-15T02:06:50.719Z,60.86
2022-12-15T02:07:50.713Z,54.10
2022-12-15T02:08:50.696Z,60.62
2022-12-15T02:09:50.703Z,55.77
2022-12-15T02:10:50.690Z,57.10
2022-12-15T02:11:50.670Z,56.45
2022-12-15T02:12:50.667Z,44.32
2022-12-15T02:13:50.660Z,50.06
2022-12-15T02:14:50.654Z,48.90
2022-12-15T02:15:50.717Z,50.22
2022-12-15T02:16:50.642Z,50.53
2022-12-15T02:17:50.630Z,49.42
2022-12-15T02:18:50.623Z,59.21
2022-12-15T02:19:50.630Z,54.97
2022-12-15T02:20:50.615Z,59.46
2022-12-15T02:21:50.599Z,51.50
2022-12-15T02:22:50.602Z,44.31
2022-12-15T02:23:50.589Z,47.91
2022-12-15T02:24:50.581Z,48.99
2022-12-15T02:25:50.859Z,54.56
2022-12-15T02:26:50.568Z,51.34
2022-12-15T02:27:50.549Z,48.44
2022-12-15T02:28:50.559Z,43.96
2022-12-15T02:29:50.620Z,51.24
2022-12-15T02:30:50.537Z,44.02
2022-12-15T02:31:50.724Z,50.51
2022-12-15T02:32:50.511Z,54.18
2022-12-15T02:33:51.513Z,46.96
2022-12-15T02:34:50.519Z,44.00
2022-12-15T02:35:50.509Z,44.82
2022-12-15T02:36:50.493Z,56.95
2022-12-15T02:37:50.479Z,50.55
2022-12-15T02:38:50.470Z,43.48
2022-12-15T02:39:50.461Z,49.35
2022-12-15T02:40:50.489Z,45.83
2022-12-15T02:41:50.452Z,44.84
2022-12-15T02:42:50.435Z,58.35
2022-12-15T02:43:50.436Z,62.91
2022-12-15T02:44:50.434Z,51.92
2022-12-15T02:45:50.506Z,46.72
2022-12-15T02:46:50.418Z,49.19
2022-12-15T02:47:50.407Z,53.20
2022-12-15T02:48:50.395Z,57.06
2022-12-15T02:49:50.391Z,51.61
2022-12-15T02:50:50.380Z,56.56
2022-12-15T02:51:50.405Z,63.37
2022-12-15T02:52:50.383Z,52.41
2022-12-15T02:53:50.370Z,53.58
2022-12-15T02:54:50.359Z,55.76
2022-12-15T02:55:50.544Z,54.33
2022-12-15T02:56:50.346Z,55.28
2022-12-15T02:57:50.325Z,51.37
2022-12-15T02:58:50.321Z,57.66
2022-12-15T02:59:50.381Z,56.00
2022-12-15T03:00:50.361Z,53.85
2022-12-15T03:01:50.584Z,59.18
2022-12-15T03:02:50.478Z,57.94
2022-12-15T03:03:50.287Z,52.10
2022-12-15T03:04:50.283Z,57.99
2022-12-15T03:05:50.274Z,60.56
2022-12-15T03:06:50.277Z,60.61
2022-12-15T03:07:50.269Z,64.33
2022-12-15T03:08:50.244Z,58.93
2022-12-15T03:09:50.237Z,54.10
2022-12-15T03:10:50.229Z,60.69
2022-12-15T03:11:50.234Z,54.74
2022-12-15T03:12:50.224Z,54.97
2022-12-15T03:13:50.211Z,56.41
2022-12-15T03:14:50.212Z,57.22
2022-12-15T03:15:50.209Z,53.58
2022-12-15T03:16:50.277Z,64.40
2022-12-15T03:17:50.196Z,61.14
2022-12-15T03:18:50.186Z,63.12
2022-12-15T03:19:50.169Z,61.24
2022-12-15T03:20:50.169Z,70.93
2022-12-15T03:21:50.171Z,56.10
2022-12-15T03:22:50.157Z,62.84
2022-12-15T03:23:50.148Z,60.11
2022-12-15T03:24:50.141Z,50.00
2022-12-15T03:25:50.129Z,58.75
2022-12-15T03:26:50.266Z,57.29
2022-12-15T03:27:50.109Z,54.71
2022-12-15T03:28:50.606Z,53.18
2022-12-15T03:29:50.099Z,55.01
2022-12-15T03:30:50.590Z,54.43
2022-12-15T03:31:50.379Z,53.88
2022-12-15T03:32:50.074Z,54.08
2022-12-15T03:33:50.076Z,55.78
2022-12-15T03:34:50.060Z,54.45
2022-12-15T03:35:50.681Z,55.05
2022-12-15T03:36:50.047Z,53.48
2022-12-15T03:37:50.039Z,57.34
2022-12-15T03:38:50.041Z,53.04
2022-12-15T03:39:50.035Z,59.29
2022-12-15T03:40:50.096Z,57.79
2022-12-15T03:41:50.022Z,58.67
2022-12-15T03:42:50.043Z,57.14
2022-12-15T03:43:50.175Z,57.66
2022-12-15T03:44:49.993Z,57.84
2022-12-15T03:45:50.084Z,56.42
2022-12-15T03:46:49.970Z,55.19
2022-12-15T03:47:50.619Z,63.33
2022-12-15T03:48:49.953Z,62.40
2022-12-15T03:49:50.528Z,59.17
2022-12-15T03:50:49.937Z,60.59
2022-12-15T03:51:49.939Z,63.45
2022-12-15T03:52:49.920Z,57.73
2022-12-15T03:53:49.927Z,57.67
2022-12-15T03:54:49.908Z,54.77
2022-12-15T03:55:49.903Z,61.92
2022-12-15T03:56:49.934Z,58.76
2022-12-15T03:57:49.888Z,58.01
2022-12-15T03:58:49.885Z,59.18
2022-12-15T03:59:49.865Z,59.90
2022-12-15T04:00:49.857Z,60.04
2022-12-15T04:01:50.042Z,61.01
2022-12-15T04:02:50.181Z,52.70
2022-12-15T04:03:49.930Z,60.30
2022-12-15T04:04:49.824Z,57.04
2022-12-15T04:05:49.833Z,54.50
2022-12-15T04:06:49.808Z,59.15
2022-12-15T04:07:49.800Z,59.44
2022-12-15T04:08:49.868Z,60.10
2022-12-15T04:09:49.795Z,65.32
2022-12-15T04:10:49.782Z,65.12
2022-12-15T04:11:49.812Z,62.42
2022-12-15T04:12:49.767Z,60.22
2022-12-15T04:13:49.750Z,59.53
2022-12-15T04:14:49.750Z,59.11
2022-12-15T04:15:49.739Z,57.78
2022-12-15T04:16:49.796Z,60.35
2022-12-15T04:17:49.723Z,59.72
2022-12-15T04:18:49.719Z,62.86
2022-12-15T04:19:49.708Z,63.07
2022-12-15T04:20:50.344Z,61.18
2022-12-15T04:21:49.698Z,62.39
2022-12-15T04:22:49.701Z,63.56
2022-12-15T04:23:49.685Z,67.49
2022-12-15T04:24:50.536Z,61.82
2022-12-15T04:25:50.664Z,60.08
2022-12-15T04:26:49.666Z,58.35
2022-12-15T04:27:49.650Z,59.96
2022-12-15T04:28:49.644Z,62.40
2022-12-15T04:29:49.637Z,65.00
2022-12-15T04:30:49.661Z,65.67
2022-12-15T04:31:49.618Z,58.83
2022-12-15T04:32:50.293Z,62.28
2022-12-15T04:33:49.599Z,63.62
2022-12-15T04:34:49.620Z,63.50
2022-12-15T04:35:49.860Z,62.47
2022-12-15T04:36:49.574Z,65.85
2022-12-15T04:37:49.561Z,62.33
2022-12-15T04:38:50.564Z,66.64
2022-12-15T04:39:49.561Z,63.96
2022-12-15T04:40:49.539Z,61.30
2022-12-15T04:41:49.530Z,59.55
2022-12-15T04:42:49.524Z,62.29
2022-12-15T04:43:49.616Z,67.24
2022-12-15T04:44:50.223Z,61.04
2022-12-15T04:45:49.571Z,60.41
2022-12-15T04:46:49.500Z,60.68
2022-12-15T04:47:49.487Z,61.49
2022-12-15T04:48:49.476Z,64.61
2022-12-15T04:49:49.477Z,64.47
2022-12-15T04:50:49.844Z,66.33
2022-12-15T04:51:49.464Z,65.00
2022-12-15T04:52:49.454Z,66.13
2022-12-15T04:53:49.439Z,60.72
2022-12-15T04:54:49.436Z,60.23
2022-12-15T04:55:49.435Z,65.04
2022-12-15T04:56:50.032Z,63.90
2022-12-15T04:57:49.408Z,63.75
2022-12-15T04:58:49.391Z,66.47
2022-12-15T04:59:49.399Z,63.95
2022-12-15T05:00:50.034Z,57.41
2022-12-15T05:01:49.476Z,62.21
2022-12-15T05:02:49.887Z,63.99
2022-12-15T05:03:49.365Z,67.63
2022-12-15T05:04:49.472Z,63.33
2022-12-15T05:05:49.349Z,62.61
2022-12-15T05:06:49.341Z,67.33
2022-12-15T05:07:49.330Z,60.43
2022-12-15T05:08:50.267Z,59.67
2022-12-15T05:09:49.327Z,61.38
2022-12-15T05:10:50.041Z,62.75
2022-12-15T05:11:49.302Z,61.34
2022-12-15T05:12:49.294Z,63.30
2022-12-15T05:13:49.280Z,59.15
2022-12-15T05:14:49.407Z,58.50
2022-12-15T05:15:49.309Z,62.80
2022-12-15T05:16:49.327Z,65.09
2022-12-15T05:17:49.254Z,61.36
2022-12-15T05:18:49.242Z,66.73
2022-12-15T05:19:49.239Z,62.01
2022-12-15T05:20:50.128Z,60.72
2022-12-15T05:21:49.226Z,62.31
2022-12-15T05:22:49.212Z,63.27
2022-12-15T05:23:49.218Z,62.63
2022-12-15T05:24:49.194Z,64.82
2022-12-15T05:25:49.201Z,62.44
2022-12-15T05:26:52.684Z,67.20
2022-12-15T05:27:50.175Z,67.02
2022-12-15T05:28:49.178Z,67.52
2022-12-15T05:29:49.174Z,63.83
2022-12-15T05:30:49.202Z,64.55
2022-12-15T05:31:49.145Z,66.61
2022-12-15T05:32:49.910Z,63.63
2022-12-15T05:33:49.129Z,67.27
2022-12-15T05:34:49.118Z,66.39
2022-12-15T05:35:49.113Z,67.71
2022-12-15T05:36:49.104Z,64.23
2022-12-15T05:37:50.098Z,64.76
2022-12-15T05:38:49.105Z,65.05
2022-12-15T05:39:49.092Z,61.89
2022-12-15T05:40:50.038Z,63.78
2022-12-15T05:41:49.068Z,63.06
2022-12-15T05:42:50.266Z,66.27
2022-12-15T05:43:49.049Z,63.65
2022-12-15T05:44:49.046Z,65.91
2022-12-15T05:45:49.038Z,62.29
2022-12-15T05:46:49.045Z,64.09
2022-12-15T05:47:49.020Z,64.44
2022-12-15T05:48:49.004Z,65.58
2022-12-15T05:49:49.011Z,64.39
2022-12-15T05:50:49.020Z,65.29
2022-12-15T05:51:50.564Z,69.30
2022-12-15T05:52:49.633Z,65.60
2022-12-15T05:53:49.964Z,62.26
2022-12-15T05:54:48.961Z,67.46
2022-12-15T05:55:49.539Z,65.97
2022-12-15T05:56:49.980Z,69.22
2022-12-15T05:57:48.927Z,67.45
2022-12-15T05:58:48.928Z,62.45
2022-12-15T05:59:48.912Z,64.50
2022-12-15T06:00:48.911Z,67.68
2022-12-15T06:01:49.068Z,64.75
2022-12-15T06:02:50.025Z,66.74
2022-12-15T06:03:48.886Z,69.32
2022-12-15T06:04:48.966Z,68.02
2022-12-15T06:05:54.660Z,64.41
2022-12-15T06:06:50.864Z,65.67
2022-12-15T06:07:48.851Z,64.32
2022-12-15T06:08:50.182Z,63.04
2022-12-15T06:09:48.831Z,64.82
2022-12-15T06:10:48.838Z,64.73
2022-12-15T06:11:48.821Z,69.01
2022-12-15T06:12:48.864Z,66.52
2022-12-15T06:13:48.809Z,66.86
2022-12-15T06:14:49.807Z,69.81
2022-12-15T06:15:48.823Z,66.96
2022-12-15T06:16:50.810Z,65.81
2022-12-15T06:17:49.688Z,65.58
2022-12-15T06:18:50.253Z,66.27
2022-12-15T06:19:48.766Z,65.16
2022-12-15T06:20:49.723Z,69.69
2022-12-15T06:21:48.751Z,71.01
2022-12-15T06:22:50.076Z,68.34
2022-12-15T06:23:49.745Z,68.29
2022-12-15T06:24:48.740Z,68.98
2022-12-15T06:25:48.720Z,67.17
2022-12-15T06:26:49.504Z,66.97
2022-12-15T06:27:48.706Z,67.79
2022-12-15T06:28:48.701Z,71.05
2022-12-15T06:29:48.693Z,67.56
2022-12-15T06:30:48.687Z,67.64
2022-12-15T06:31:48.760Z,68.63
2022-12-15T06:32:49.880Z,70.16
2022-12-15T06:33:48.659Z,69.35
2022-12-15T06:34:48.652Z,69.42
2022-12-15T06:35:48.638Z,67.23
2022-12-15T06:36:48.630Z,70.38
2022-12-15T06:37:48.637Z,68.28
2022-12-15T06:38:50.029Z,67.38
2022-12-15T06:39:48.607Z,68.50
2022-12-15T06:40:48.604Z,67.14
2022-12-15T06:41:48.593Z,67.74
2022-12-15T06:42:48.591Z,69.84
2022-12-15T06:43:48.600Z,69.83
2022-12-15T06:44:48.586Z,67.20
2022-12-15T06:45:49.900Z,68.20
2022-12-15T06:46:48.572Z,68.42
2022-12-15T06:47:48.567Z,66.64
2022-12-15T06:48:48.534Z,67.64
2022-12-15T06:49:48.535Z,67.81
2022-12-15T06:50:50.148Z,68.43
2022-12-15T06:51:48.526Z,67.17
2022-12-15T06:52:48.506Z,68.05
2022-12-15T06:53:48.507Z,67.42
2022-12-15T06:54:49.487Z,69.02
2022-12-15T06:55:48.520Z,68.31
2022-12-15T06:56:49.860Z,71.52
2022-12-15T06:57:48.488Z,69.55
2022-12-15T06:58:48.464Z,68.92
2022-12-15T06:59:48.445Z,68.80
2022-12-15T07:00:48.439Z,70.06
2022-12-15T07:01:48.607Z,69.65
2022-12-15T07:02:50.330Z,70.96
2022-12-15T07:03:48.719Z,69.18
2022-12-15T07:04:48.411Z,68.98
2022-12-15T07:05:48.395Z,67.26
2022-12-15T07:06:48.421Z,68.20
2022-12-15T07:07:48.386Z,67.33
2022-12-15T07:08:48.379Z,67.56
2022-12-15T07:09:48.416Z,65.90
2022-12-15T07:10:48.362Z,70.93
2022-12-15T07:11:48.375Z,67.37
2022-12-15T07:12:48.353Z,67.18
2022-12-15T07:13:48.342Z,68.88
2022-12-15T07:14:53.217Z,68.42
2022-12-15T07:15:50.399Z,67.85
2022-12-15T07:16:48.361Z,68.18
2022-12-15T07:17:48.309Z,69.93
2022-12-15T07:18:48.314Z,68.86
2022-12-15T07:19:48.309Z,69.62
2022-12-15T07:20:49.954Z,69.38
2022-12-15T07:21:48.278Z,68.19
2022-12-15T07:22:48.274Z,67.75
2022-12-15T07:23:57.107Z,68.01
2022-12-15T07:24:50.262Z,68.16
2022-12-15T07:25:48.249Z,68.10
2022-12-15T07:26:49.069Z,66.96
2022-12-15T07:27:48.245Z,67.99
2022-12-15T07:28:48.246Z,68.98
2022-12-15T07:29:48.217Z,67.95
2022-12-15T07:30:48.211Z,68.65
2022-12-15T07:31:48.245Z,67.27
2022-12-15T07:32:50.196Z,66.63
2022-12-15T07:33:48.495Z,69.50
2022-12-15T07:34:48.178Z,66.89
2022-12-15T07:35:49.176Z,68.54
2022-12-15T07:36:52.052Z,66.60
2022-12-15T07:37:49.179Z,70.38
2022-12-15T07:38:50.572Z,64.78
2022-12-15T07:39:48.149Z,69.39
2022-12-15T07:40:48.149Z,67.33
2022-12-15T07:41:48.651Z,65.48
2022-12-15T07:42:48.126Z,66.94
2022-12-15T07:43:48.276Z,67.31
2022-12-15T07:44:50.008Z,67.54
2022-12-15T07:45:51.486Z,67.80
2022-12-15T07:46:49.153Z,67.64
2022-12-15T07:49:35.541Z,67.44
2022-12-15T07:50:35.504Z,67.92
2022-12-15T07:51:35.500Z,68.62
2022-12-15T07:52:35.495Z,68.72
2022-12-15T07:53:35.812Z,71.28
2022-12-15T07:54:35.480Z,70.12
2022-12-15T07:56:04.889Z,69.32
2022-12-15T07:56:39.367Z,67.50
2022-12-15T07:57:35.474Z,67.96
2022-12-15T07:58:35.497Z,67.75
2022-12-15T07:59:35.439Z,67.17
2022-12-15T08:00:35.438Z,68.30
2022-12-15T08:01:35.528Z,69.08
2022-12-15T08:02:35.570Z,69.26
2022-12-15T08:03:36.221Z,67.05
2022-12-15T08:04:35.407Z,68.35
2022-12-15T08:05:35.393Z,64.71
2022-12-15T08:06:35.393Z,67.06
2022-12-15T08:07:35.375Z,65.47
2022-12-15T08:08:35.991Z,66.98
2022-12-15T08:09:35.363Z,69.13
2022-12-15T08:10:35.351Z,65.81
2022-12-15T08:11:35.366Z,63.04
2022-12-15T08:12:35.340Z,66.11
2022-12-15T08:14:04.360Z,66.21
2022-12-15T08:14:36.322Z,65.54
2022-12-15T08:15:35.317Z,68.03
2022-12-15T08:16:35.368Z,67.83
2022-12-15T08:17:35.310Z,67.21
2022-12-15T08:18:35.293Z,67.82
2022-12-15T08:19:35.291Z,70.93
2022-12-15T08:20:35.283Z,71.41
2022-12-15T08:21:35.288Z,75.55
2022-12-15T08:22:35.263Z,69.02
2022-12-15T08:23:35.257Z,68.79
2022-12-15T08:24:35.258Z,69.94
2022-12-15T08:25:35.242Z,70.68
2022-12-15T08:26:35.238Z,66.81
2022-12-15T08:27:35.249Z,67.72
2022-12-15T08:28:35.218Z,67.22
2022-12-15T08:29:51.779Z,67.75
2022-12-15T08:30:36.205Z,68.49
2022-12-15T08:31:35.234Z,67.60
2022-12-15T08:32:36.317Z,66.98
2022-12-15T08:33:36.299Z,68.09
2022-12-15T08:34:36.275Z,67.50
2022-12-15T08:35:55.786Z,68.79
2022-12-15T08:36:38.254Z,69.72
2022-12-15T08:37:36.247Z,68.86
2022-12-15T08:38:36.238Z,67.52
2022-12-15T08:39:36.225Z,65.90
2022-12-15T08:40:36.217Z,65.17
2022-12-15T08:41:36.220Z,66.07
2022-12-15T08:42:36.216Z,68.69
2022-12-15T08:43:36.216Z,68.12
2022-12-15T08:44:36.195Z,66.69
2022-12-15T08:45:36.277Z,69.25
2022-12-15T08:46:36.881Z,66.09
2022-12-15T08:47:36.169Z,67.39
2022-12-15T08:48:36.188Z,70.24
2022-12-15T08:49:36.154Z,67.20
2022-12-15T08:50:37.145Z,68.69
2022-12-15T08:51:36.140Z,70.78
2022-12-15T08:52:36.133Z,68.51
2022-12-15T08:53:36.141Z,67.23
2022-12-15T08:54:36.119Z,69.34
2022-12-15T08:55:36.114Z,69.58
2022-12-15T08:56:36.109Z,70.46
2022-12-15T08:57:36.094Z,68.76
2022-12-15T08:58:36.286Z,67.40
2022-12-15T08:59:36.086Z,68.37
2022-12-15T09:00:36.072Z,68.88
2022-12-15T09:01:36.299Z,67.33
2022-12-15T09:02:37.008Z,70.36
2022-12-15T09:03:36.372Z,70.57
2022-12-15T09:04:37.075Z,69.51
2022-12-15T09:05:36.033Z,68.36
2022-12-15T09:06:36.043Z,67.94
2022-12-15T09:07:36.017Z,67.56
2022-12-15T09:08:36.011Z,67.16
2022-12-15T09:09:36.002Z,66.73
2022-12-15T09:10:35.988Z,68.03
2022-12-15T09:11:35.983Z,68.68
2022-12-15T09:12:35.980Z,67.08
2022-12-15T09:13:36.307Z,66.47
2022-12-15T09:14:35.970Z,65.86
2022-12-15T09:16:07.800Z,68.33
2022-12-15T09:16:38.922Z,67.45
2022-12-15T09:17:35.973Z,67.01
2022-12-15T09:18:35.937Z,67.19
2022-12-15T09:19:35.926Z,67.29
2022-12-15T09:20:35.979Z,68.93
2022-12-15T09:21:35.922Z,68.41
2022-12-15T09:22:35.909Z,68.81
2022-12-15T09:23:36.597Z,65.33
2022-12-15T09:24:35.903Z,67.54
2022-12-15T09:25:35.937Z,68.91
2022-12-15T09:26:35.886Z,68.00
2022-12-15T09:27:35.893Z,68.47
2022-12-15T09:28:35.861Z,69.78
2022-12-15T09:29:35.848Z,68.72
2022-12-15T09:30:35.903Z,69.14
2022-12-15T09:31:35.874Z,67.78
2022-12-15T09:32:36.828Z,69.16
2022-12-15T09:33:36.051Z,68.12
2022-12-15T09:34:35.852Z,69.17
2022-12-15T09:35:35.807Z,69.08
2022-12-15T09:36:35.810Z,68.97
2022-12-15T09:37:35.844Z,66.82
2022-12-15T09:38:35.791Z,70.07
2022-12-15T09:39:35.807Z,69.17
2022-12-15T09:40:35.780Z,69.07
2022-12-15T09:41:35.785Z,68.38
2022-12-15T09:42:35.759Z,70.32
2022-12-15T09:43:38.972Z,68.55
2022-12-15T09:44:37.748Z,67.84
2022-12-15T09:45:35.742Z,71.78
2022-12-15T09:46:35.765Z,67.22
2022-12-15T09:47:35.778Z,67.66
2022-12-15T09:48:35.714Z,68.41
2022-12-15T09:49:35.702Z,67.36
2022-12-15T09:50:35.695Z,69.04
2022-12-15T09:51:35.681Z,69.53
2022-12-15T09:52:35.705Z,67.85
2022-12-15T09:54:01.841Z,69.25
2022-12-15T09:54:37.767Z,68.02
2022-12-15T09:55:35.709Z,69.08
2022-12-15T09:56:35.654Z,67.18
2022-12-15T09:57:35.652Z,68.78
2022-12-15T09:58:36.387Z,67.05
2022-12-15T09:59:35.779Z,69.21
2022-12-15T10:00:35.615Z,68.36
2022-12-15T10:01:35.693Z,66.41
2022-12-15T10:02:35.695Z,67.48
2022-12-15T10:03:36.148Z,69.67
2022-12-15T10:04:35.695Z,66.68
2022-12-15T10:06:06.155Z,68.21
2022-12-15T10:06:37.574Z,67.54
2022-12-15T10:07:35.574Z,68.24
2022-12-15T10:08:35.572Z,69.57
2022-12-15T10:09:36.557Z,68.58
2022-12-15T10:10:35.544Z,70.08
2022-12-15T10:11:35.536Z,69.19
2022-12-15T10:12:36.459Z,71.65
2022-12-15T10:13:35.529Z,67.02
2022-12-15T10:14:35.510Z,66.23
2022-12-15T10:15:35.631Z,70.41
2022-12-15T10:16:35.498Z,67.57
2022-12-15T10:17:35.486Z,68.39
2022-12-15T10:18:35.498Z,68.20
2022-12-15T10:19:35.482Z,69.24
2022-12-15T10:20:35.465Z,70.52
2022-12-15T10:21:35.534Z,70.90
2022-12-15T10:22:35.459Z,71.22
2022-12-15T10:23:36.101Z,69.66
2022-12-15T10:25:08.736Z,70.62
2022-12-15T10:25:37.433Z,69.16
2022-12-15T10:26:35.425Z,68.03
2022-12-15T10:27:35.410Z,68.37
2022-12-15T10:28:36.343Z,68.22
2022-12-15T10:29:35.463Z,68.18
2022-12-15T10:30:36.488Z,69.83
2022-12-15T10:31:35.415Z,69.44
2022-12-15T10:32:40.981Z,69.41
2022-12-15T10:33:37.375Z,68.52
2022-12-15T10:34:35.412Z,69.90
2022-12-15T10:35:35.366Z,68.38
2022-12-15T10:36:35.341Z,70.91
2022-12-15T10:37:35.334Z,68.55
2022-12-15T10:38:35.334Z,68.43
2022-12-15T10:39:35.318Z,68.79
2022-12-15T10:40:36.314Z,69.51
2022-12-15T10:41:35.305Z,67.34
2022-12-15T10:42:35.293Z,65.31
2022-12-15T10:43:36.170Z,66.53
2022-12-15T10:44:35.282Z,66.10
2022-12-15T10:45:35.280Z,69.37
2022-12-15T10:46:35.302Z,67.40
2022-12-15T10:47:35.256Z,68.86
2022-12-15T10:48:35.254Z,67.43
2022-12-15T10:49:35.248Z,67.52
2022-12-15T10:50:35.240Z,68.46
2022-12-15T10:51:35.249Z,69.41
2022-12-15T10:52:35.285Z,68.52
2022-12-15T10:53:35.474Z,67.46
2022-12-15T10:54:35.201Z,69.61
2022-12-15T10:55:35.205Z,68.02
2022-12-15T10:56:35.193Z,67.19
2022-12-15T10:57:35.198Z,69.62
2022-12-15T10:58:35.179Z,67.31
2022-12-15T10:59:35.235Z,67.41
2022-12-15T11:00:35.161Z,71.27
2022-12-15T11:01:35.413Z,71.53
2022-12-15T11:02:35.371Z,69.12
2022-12-15T11:03:35.953Z,68.96
2022-12-15T11:04:35.215Z,78.47
2022-12-15T11:05:35.116Z,69.61
2022-12-15T11:06:35.117Z,69.07
2022-12-15T11:07:35.110Z,66.07
2022-12-15T11:08:35.115Z,66.18
2022-12-15T11:09:35.961Z,68.30
2022-12-15T11:10:35.086Z,66.47
2022-12-15T11:11:35.108Z,68.52
2022-12-15T11:12:35.069Z,68.05
2022-12-15T11:13:35.369Z,65.99
2022-12-15T11:14:36.063Z,66.63
2022-12-15T11:15:35.099Z,67.55
2022-12-15T11:16:35.043Z,66.94
2022-12-15T11:17:35.029Z,68.25
2022-12-15T11:18:35.063Z,68.01
2022-12-15T11:19:35.487Z,70.98
2022-12-15T11:20:35.009Z,70.62
2022-12-15T11:21:35.000Z,70.09
2022-12-15T11:22:34.993Z,68.75
2022-12-15T11:23:35.706Z,68.83
2022-12-15T11:24:34.982Z,68.35
2022-12-15T11:25:34.981Z,70.13
2022-12-15T11:26:34.957Z,70.23
2022-12-15T11:27:35.032Z,68.89
2022-12-15T11:28:34.945Z,69.12
2022-12-15T11:29:34.933Z,67.78
2022-12-15T11:30:34.938Z,69.75
2022-12-15T11:31:34.923Z,67.96
2022-12-15T11:32:34.919Z,68.58
2022-12-15T11:33:35.594Z,68.88
2022-12-15T11:34:34.922Z,70.63
2022-12-15T11:35:34.887Z,70.55
2022-12-15T11:36:34.880Z,71.50
2022-12-15T11:37:36.779Z,67.36
2022-12-15T11:38:36.001Z,68.73
2022-12-15T11:39:34.894Z,66.11
2022-12-15T11:40:34.849Z,68.09
2022-12-15T11:41:34.839Z,68.49
2022-12-15T11:42:34.833Z,71.12
2022-12-15T11:43:35.465Z,68.25
2022-12-15T11:44:34.849Z,67.05
2022-12-15T11:45:34.819Z,69.08
2022-12-15T11:46:34.822Z,69.41
2022-12-15T11:47:34.798Z,67.61
2022-12-15T11:48:34.827Z,67.56
2022-12-15T11:49:40.783Z,66.73
2022-12-15T11:50:36.781Z,69.73
2022-12-15T11:51:34.779Z,69.28
2022-12-15T11:52:34.755Z,68.39
2022-12-15T11:53:35.484Z,67.55
2022-12-15T11:54:34.742Z,69.20
2022-12-15T11:55:41.060Z,70.92
2022-12-15T11:56:37.394Z,67.90
2022-12-15T11:57:34.722Z,68.10
2022-12-15T11:58:36.321Z,67.77
2022-12-15T11:59:34.711Z,67.33
2022-12-15T12:00:34.689Z,69.21
2022-12-15T12:01:34.706Z,69.12
2022-12-15T12:02:34.874Z,69.11
2022-12-15T12:03:34.679Z,69.05
2022-12-15T12:04:34.676Z,66.93
2022-12-15T12:05:34.778Z,68.59
2022-12-15T12:06:34.671Z,69.34
2022-12-15T12:07:41.527Z,68.37
2022-12-15T12:08:36.691Z,67.31
2022-12-15T12:09:35.636Z,71.01
2022-12-15T12:10:34.612Z,68.76
2022-12-15T12:11:36.452Z,68.60
2022-12-15T12:12:34.602Z,68.32
2022-12-15T12:13:34.653Z,70.48
2022-12-15T12:14:35.387Z,70.14
2022-12-15T12:15:34.575Z,68.95
2022-12-15T12:16:34.567Z,70.12
2022-12-15T12:17:34.581Z,68.38
2022-12-15T12:18:35.010Z,71.33
2022-12-15T12:19:34.626Z,69.62
2022-12-15T12:20:34.557Z,70.93
2022-12-15T12:21:34.562Z,71.24
2022-12-15T12:22:35.524Z,71.65
2022-12-15T12:23:34.516Z,68.25
2022-12-15T12:24:34.547Z,69.71
2022-12-15T12:25:34.543Z,70.50
2022-12-15T12:26:35.532Z,69.31
2022-12-15T12:27:34.490Z,69.55
2022-12-15T12:28:35.048Z,67.19
2022-12-15T12:29:34.492Z,69.82
2022-12-15T12:30:34.476Z,69.60
2022-12-15T12:31:34.470Z,67.12
2022-12-15T12:32:34.451Z,69.58
2022-12-15T12:33:35.000Z,68.54
2022-12-15T12:34:34.443Z,67.53
2022-12-15T12:35:34.433Z,69.75
2022-12-15T12:36:34.426Z,67.77
2022-12-15T12:37:34.411Z,69.04
2022-12-15T12:38:35.765Z,68.27
2022-12-15T12:39:34.397Z,68.54
2022-12-15T12:40:34.394Z,68.05
2022-12-15T12:41:35.996Z,68.22
2022-12-15T12:42:34.370Z,67.78
2022-12-15T12:43:35.160Z,69.91
2022-12-15T12:44:34.354Z,69.41
2022-12-15T12:45:34.374Z,65.05
2022-12-15T12:46:34.366Z,67.12
2022-12-15T12:47:34.363Z,67.42
2022-12-15T12:48:34.319Z,66.74
2022-12-15T12:49:34.370Z,68.39
2022-12-15T12:50:34.348Z,69.14
2022-12-15T12:51:34.338Z,68.52
2022-12-15T12:52:34.294Z,67.82
2022-12-15T12:54:09.924Z,67.31
2022-12-15T12:54:34.290Z,70.67
2022-12-15T12:55:36.026Z,67.34
2022-12-15T12:56:35.980Z,69.89